createdAt,value
2022-11-19T00:00:40.747Z,0.00
2022-11-19T00:01:40.762Z,0.00
2022-11-19T00:02:40.776Z,0.00
2022-11-19T00:03:40.796Z,0.00
2022-11-19T00:04:40.810Z,0.00
2022-11-19T00:05:40.828Z,0.00
2022-11-19T00:06:40.843Z,0.00
2022-11-19T00:07:40.912Z,0.00
2022-11-19T00:08:40.880Z,0.00
2022-11-19T00:09:40.891Z,0.00
2022-11-19T00:10:40.909Z,0.00
2022-11-19T00:11:40.927Z,0.00
2022-11-19T00:12:40.944Z,0.00
2022-11-19T00:13:40.961Z,0.00
2022-11-19T00:14:40.977Z,0.00
2022-11-19T00:15:40.992Z,0.00
2022-11-19T00:16:41.007Z,0.00
2022-11-19T00:17:41.026Z,0.00
2022-11-19T00:18:41.049Z,0.00
2022-11-19T00:19:41.063Z,0.00
2022-11-19T00:20:41.077Z,0.00
2022-11-19T00:21:41.093Z,0.00
2022-11-19T00:22:41.116Z,0.00
2022-11-19T00:23:41.132Z,0.00
2022-11-19T00:24:41.154Z,0.00
2022-11-19T00:25:41.163Z,0.00
2022-11-19T00:26:41.175Z,0.00
2022-11-19T00:27:41.194Z,0.00
2022-11-19T00:28:41.209Z,0.00
2022-11-19T00:29:41.229Z,0.00
2022-11-19T00:30:48.196Z,0.00
2022-11-19T00:31:41.260Z,0.00
2022-11-19T00:32:41.274Z,0.00
2022-11-19T00:33:41.291Z,0.00
2022-11-19T00:34:41.314Z,0.00
2022-11-19T00:35:41.331Z,0.00
2022-11-19T00:36:41.344Z,0.00
2022-11-19T00:37:41.364Z,0.00
2022-11-19T00:38:41.374Z,0.00
2022-11-19T00:39:41.392Z,0.00
2022-11-19T00:40:41.407Z,0.00
2022-11-19T00:41:41.426Z,0.00
2022-11-19T00:42:41.441Z,0.00
2022-11-19T00:43:41.458Z,0.00
2022-11-19T00:44:41.474Z,0.00
2022-11-19T00:45:41.490Z,0.00
2022-11-19T00:46:41.506Z,0.00
2022-11-19T00:47:41.530Z,0.00
2022-11-19T00:48:41.543Z,0.00
2022-11-19T00:49:41.557Z,0.00
2022-11-19T00:50:41.574Z,0.00
2022-11-19T00:51:41.589Z,0.00
2022-11-19T00:52:41.613Z,0.00
2022-11-19T00:53:41.629Z,0.00
2022-11-19T00:54:41.638Z,0.00
2022-11-19T00:55:41.656Z,0.00
2022-11-19T00:56:41.671Z,0.00
2022-11-19T00:57:41.695Z,0.00
2022-11-19T00:58:41.709Z,0.00
2022-11-19T00:59:41.725Z,0.00
2022-11-19T01:00:41.740Z,0.00
2022-11-19T01:01:41.836Z,0.00
2022-11-19T01:02:41.778Z,0.00
2022-11-19T01:03:41.787Z,0.00
2022-11-19T01:04:41.804Z,0.00
2022-11-19T01:05:41.822Z,0.00
2022-11-19T01:06:41.837Z,0.00
2022-11-19T01:07:41.855Z,0.00
2022-11-19T01:08:41.872Z,0.00
2022-11-19T01:09:41.889Z,0.00
2022-11-19T01:10:41.905Z,0.00
2022-11-19T01:11:41.940Z,0.00
2022-11-19T01:12:41.937Z,0.00
2022-11-19T01:13:41.954Z,0.00
2022-11-19T01:14:41.969Z,0.00
2022-11-19T01:15:41.988Z,0.00
2022-11-19T01:16:42.009Z,0.00
2022-11-19T01:17:42.022Z,0.00
2022-11-19T01:18:42.069Z,0.00
2022-11-19T01:19:42.054Z,0.00
2022-11-19T01:20:42.127Z,0.00
2022-11-19T01:21:42.090Z,0.00
2022-11-19T01:22:42.105Z,0.00
2022-11-19T01:23:42.121Z,0.00
2022-11-19T01:24:42.156Z,0.00
2022-11-19T01:25:42.155Z,0.00
2022-11-19T01:26:45.706Z,0.00
2022-11-19T01:27:42.188Z,0.00
2022-11-19T01:28:42.207Z,0.00
2022-11-19T01:29:42.221Z,0.00
2022-11-19T01:30:42.233Z,0.00
2022-11-19T01:31:42.250Z,0.00
2022-11-19T01:32:42.277Z,0.00
2022-11-19T01:33:42.302Z,0.00
2022-11-19T01:34:42.300Z,0.00
2022-11-19T01:35:42.319Z,0.00
2022-11-19T01:36:42.337Z,0.00
2022-11-19T01:37:42.354Z,0.00
2022-11-19T01:38:42.374Z,0.00
2022-11-19T01:39:42.385Z,0.00
2022-11-19T01:40:42.403Z,0.00
2022-11-19T01:41:42.419Z,0.00
2022-11-19T01:42:42.437Z,0.00
2022-11-19T01:43:42.454Z,0.00
2022-11-19T01:44:42.470Z,0.00
2022-11-19T01:45:42.485Z,0.00
2022-11-19T01:46:42.500Z,0.00
2022-11-19T01:47:42.519Z,0.00
2022-11-19T01:48:42.536Z,0.00
2022-11-19T01:49:42.552Z,0.00
2022-11-19T01:50:42.583Z,0.00
2022-11-19T01:51:42.591Z,0.00
2022-11-19T01:52:42.601Z,0.00
2022-11-19T01:53:42.618Z,0.00
2022-11-19T01:54:42.635Z,0.00
2022-11-19T01:55:42.652Z,0.00
2022-11-19T01:56:42.681Z,0.00
2022-11-19T01:57:42.686Z,0.00
2022-11-19T01:58:42.700Z,0.00
2022-11-19T01:59:42.717Z,0.00
2022-11-19T02:00:42.731Z,0.00
2022-11-19T02:01:42.795Z,0.00
2022-11-19T02:02:42.767Z,0.00
2022-11-19T02:03:42.784Z,0.00
2022-11-19T02:04:42.807Z,0.00
2022-11-19T02:05:42.820Z,0.00
2022-11-19T02:06:42.831Z,0.00
2022-11-19T02:07:42.856Z,0.00
2022-11-19T02:08:42.865Z,0.00
2022-11-19T02:09:42.884Z,0.00
2022-11-19T02:10:42.898Z,0.00
2022-11-19T02:11:42.916Z,0.00
2022-11-19T02:12:42.936Z,0.00
2022-11-19T02:13:42.960Z,0.00
2022-11-19T02:14:42.964Z,0.00
2022-11-19T02:15:42.990Z,0.00
2022-11-19T02:16:43.002Z,0.00
2022-11-19T02:17:43.020Z,0.00
2022-11-19T02:18:43.033Z,0.00
2022-11-19T02:19:43.049Z,0.00
2022-11-19T02:20:43.093Z,0.00
2022-11-19T02:21:43.082Z,0.00
2022-11-19T02:22:43.096Z,0.00
2022-11-19T02:23:46.175Z,0.00
2022-11-19T02:24:43.132Z,0.00
2022-11-19T02:25:43.149Z,0.00
2022-11-19T02:26:43.163Z,0.00
2022-11-19T02:27:43.181Z,0.00
2022-11-19T02:28:43.195Z,0.00
2022-11-19T02:29:43.214Z,0.00
2022-11-19T02:30:43.242Z,0.00
2022-11-19T02:31:43.246Z,0.00
2022-11-19T02:32:43.265Z,0.00
2022-11-19T02:33:43.282Z,0.00
2022-11-19T02:34:43.302Z,0.00
2022-11-19T02:35:43.312Z,0.00
2022-11-19T02:36:43.332Z,0.00
2022-11-19T02:37:43.350Z,0.00
2022-11-19T02:38:43.358Z,0.00
2022-11-19T02:39:43.379Z,0.00
2022-11-19T02:40:43.390Z,0.00
2022-11-19T02:41:43.419Z,0.00
2022-11-19T02:42:43.427Z,0.00
2022-11-19T02:43:43.444Z,0.00
2022-11-19T02:44:43.459Z,0.00
2022-11-19T02:45:43.480Z,0.00
2022-11-19T02:46:43.493Z,0.00
2022-11-19T02:47:43.510Z,0.00
2022-11-19T02:48:43.528Z,0.00
2022-11-19T02:49:43.548Z,0.00
2022-11-19T02:50:43.558Z,0.00
2022-11-19T02:51:43.580Z,0.00
2022-11-19T02:52:43.592Z,0.00
2022-11-19T02:53:43.610Z,0.00
2022-11-19T02:54:43.628Z,0.00
2022-11-19T02:55:43.640Z,0.00
2022-11-19T02:56:43.660Z,0.00
2022-11-19T02:57:43.674Z,0.00
2022-11-19T02:58:43.688Z,0.00
2022-11-19T02:59:43.716Z,0.00
2022-11-19T03:00:43.723Z,0.00
2022-11-19T03:01:43.795Z,0.00
2022-11-19T03:02:43.755Z,0.00
2022-11-19T03:03:43.771Z,0.00
2022-11-19T03:04:43.788Z,0.00
2022-11-19T03:05:43.807Z,0.00
2022-11-19T03:06:43.821Z,0.00
2022-11-19T03:07:43.836Z,0.00
2022-11-19T03:08:43.855Z,0.00
2022-11-19T03:09:43.870Z,0.00
2022-11-19T03:10:43.885Z,0.00
2022-11-19T03:11:43.903Z,0.00
2022-11-19T03:12:43.920Z,0.00
2022-11-19T03:13:43.941Z,0.00
2022-11-19T03:14:43.949Z,0.00
2022-11-19T03:15:43.977Z,0.00
2022-11-19T03:16:43.987Z,0.00
2022-11-19T03:17:44.001Z,0.00
2022-11-19T03:18:44.025Z,0.00
2022-11-19T03:19:44.041Z,0.00
2022-11-19T03:20:44.063Z,0.00
2022-11-19T03:21:44.069Z,0.00
2022-11-19T03:22:44.083Z,0.00
2022-11-19T03:23:44.104Z,0.00
2022-11-19T03:24:44.120Z,0.00
2022-11-19T03:25:44.137Z,0.00
2022-11-19T03:26:44.150Z,0.00
2022-11-19T03:27:44.167Z,0.00
2022-11-19T03:28:44.185Z,0.00
2022-11-19T03:29:44.198Z,0.00
2022-11-19T03:30:44.213Z,0.00
2022-11-19T03:31:44.235Z,0.00
2022-11-19T03:32:44.252Z,0.00
2022-11-19T03:33:44.264Z,0.00
2022-11-19T03:34:44.282Z,0.00
2022-11-19T03:35:44.296Z,0.00
2022-11-19T03:36:44.312Z,0.00
2022-11-19T03:37:44.333Z,0.00
2022-11-19T03:38:44.344Z,0.00
2022-11-19T03:39:44.363Z,0.00
2022-11-19T03:40:44.377Z,0.00
2022-11-19T03:41:44.394Z,0.00
2022-11-19T03:42:44.425Z,0.00
2022-11-19T03:43:44.428Z,0.00
2022-11-19T03:44:44.450Z,0.00
2022-11-19T03:45:44.461Z,0.00
2022-11-19T03:46:44.474Z,0.00
2022-11-19T03:47:44.490Z,0.00
2022-11-19T03:48:44.509Z,0.00
2022-11-19T03:49:44.525Z,0.00
2022-11-19T03:50:44.539Z,0.00
2022-11-19T03:51:44.565Z,0.00
2022-11-19T03:52:44.580Z,0.00
2022-11-19T03:53:44.587Z,0.00
2022-11-19T03:54:44.607Z,0.00
2022-11-19T03:55:44.622Z,0.00
2022-11-19T03:56:44.641Z,0.00
2022-11-19T03:57:44.654Z,0.00
2022-11-19T03:58:44.684Z,0.00
2022-11-19T03:59:44.688Z,0.00
2022-11-19T04:00:44.703Z,0.00
2022-11-19T04:01:44.743Z,0.00
2022-11-19T04:02:44.735Z,0.00
2022-11-19T04:03:44.749Z,0.00
2022-11-19T04:04:44.770Z,0.00
2022-11-19T04:05:44.783Z,0.00
2022-11-19T04:06:44.799Z,0.00
2022-11-19T04:07:44.813Z,0.00
2022-11-19T04:08:44.832Z,0.00
2022-11-19T04:09:44.846Z,0.00
2022-11-19T04:10:44.861Z,0.00
2022-11-19T04:12:05.891Z,0.00
2022-11-19T04:12:44.893Z,0.00
2022-11-19T04:13:44.911Z,0.00
2022-11-19T04:14:44.931Z,0.00
2022-11-19T04:15:44.940Z,0.00
2022-11-19T04:16:44.966Z,0.00
2022-11-19T04:17:44.974Z,0.00
2022-11-19T04:18:44.999Z,0.00
2022-11-19T04:19:45.004Z,0.00
2022-11-19T04:20:45.020Z,0.00
2022-11-19T04:21:45.036Z,0.00
2022-11-19T04:22:45.051Z,0.00
2022-11-19T04:23:45.066Z,0.00
2022-11-19T04:24:45.087Z,0.00
2022-11-19T04:25:45.111Z,0.00
2022-11-19T04:26:45.113Z,0.00
2022-11-19T04:27:45.146Z,0.00
2022-11-19T04:28:45.143Z,0.00
2022-11-19T04:29:45.159Z,0.00
2022-11-19T04:30:45.174Z,0.00
2022-11-19T04:31:45.189Z,0.00
2022-11-19T04:32:45.202Z,0.00
2022-11-19T04:33:45.226Z,0.00
2022-11-19T04:34:45.235Z,0.00
2022-11-19T04:35:45.250Z,0.00
2022-11-19T04:36:45.265Z,0.00
2022-11-19T04:37:45.284Z,0.00
2022-11-19T04:38:45.301Z,0.00
2022-11-19T04:39:45.314Z,0.00
2022-11-19T04:40:45.330Z,0.00
2022-11-19T04:41:45.345Z,0.00
2022-11-19T04:42:45.357Z,0.00
2022-11-19T04:43:45.375Z,0.00
2022-11-19T04:44:45.393Z,0.00
2022-11-19T04:45:45.408Z,0.00
2022-11-19T04:46:45.419Z,0.00
2022-11-19T04:47:45.437Z,0.00
2022-11-19T04:48:45.455Z,0.00
2022-11-19T04:49:45.466Z,0.00
2022-11-19T04:50:45.480Z,0.00
2022-11-19T04:51:45.499Z,0.00
2022-11-19T04:52:45.524Z,0.00
2022-11-19T04:53:45.531Z,0.00
2022-11-19T04:54:45.553Z,0.00
2022-11-19T04:55:45.561Z,0.00
2022-11-19T04:56:45.570Z,0.00
2022-11-19T04:57:45.590Z,0.00
2022-11-19T04:58:45.606Z,0.00
2022-11-19T04:59:45.671Z,0.00
2022-11-19T05:00:45.640Z,0.00
2022-11-19T05:01:45.692Z,0.00
2022-11-19T05:02:45.665Z,0.00
2022-11-19T05:03:45.684Z,0.00
2022-11-19T05:04:45.695Z,0.00
2022-11-19T05:05:45.717Z,0.00
2022-11-19T05:06:45.727Z,0.00
2022-11-19T05:07:45.743Z,0.00
2022-11-19T05:08:45.760Z,0.00
2022-11-19T05:09:45.782Z,0.00
2022-11-19T05:10:45.790Z,0.00
2022-11-19T05:11:45.807Z,0.00
2022-11-19T05:12:45.822Z,0.00
2022-11-19T05:13:45.836Z,0.00
2022-11-19T05:14:45.851Z,0.00
2022-11-19T05:15:45.867Z,0.00
2022-11-19T05:16:45.880Z,0.00
2022-11-19T05:17:45.910Z,0.00
2022-11-19T05:18:45.910Z,0.00
2022-11-19T05:19:45.930Z,0.00
2022-11-19T05:20:45.938Z,0.00
2022-11-19T05:21:45.959Z,0.00
2022-11-19T05:22:45.968Z,0.00
2022-11-19T05:23:46.038Z,0.00
2022-11-19T05:24:46.001Z,0.00
2022-11-19T05:25:46.017Z,0.00
2022-11-19T05:26:46.031Z,0.00
2022-11-19T05:27:46.054Z,0.00
2022-11-19T05:28:46.071Z,0.00
2022-11-19T05:29:46.079Z,0.00
2022-11-19T05:30:46.092Z,0.00
2022-11-19T05:31:46.108Z,0.00
2022-11-19T05:32:46.124Z,0.00
2022-11-19T05:33:46.141Z,0.00
2022-11-19T05:34:46.148Z,0.00
2022-11-19T05:35:46.169Z,0.00
2022-11-19T05:36:46.184Z,0.00
2022-11-19T05:37:46.196Z,0.00
2022-11-19T05:38:46.212Z,0.00
2022-11-19T05:39:46.224Z,0.00
2022-11-19T05:40:46.244Z,0.00
2022-11-19T05:41:46.258Z,0.00
2022-11-19T05:42:46.275Z,0.00
2022-11-19T05:43:46.286Z,0.00
2022-11-19T05:44:46.304Z,0.00
2022-11-19T05:45:46.321Z,0.00
2022-11-19T05:46:46.333Z,0.00
2022-11-19T05:47:48.754Z,0.00
2022-11-19T05:48:46.365Z,0.00
2022-11-19T05:49:46.378Z,0.00
2022-11-19T05:50:46.391Z,0.00
2022-11-19T05:51:46.406Z,0.00
2022-11-19T05:52:46.422Z,0.00
2022-11-19T05:53:46.465Z,0.00
2022-11-19T05:54:46.451Z,0.00
2022-11-19T05:55:46.465Z,0.00
2022-11-19T05:56:46.492Z,0.00
2022-11-19T05:57:46.498Z,0.00
2022-11-19T05:58:46.510Z,0.00
2022-11-19T05:59:46.528Z,0.00
2022-11-19T06:00:46.542Z,0.00
2022-11-19T06:01:46.557Z,0.00
2022-11-19T06:02:46.630Z,0.00
2022-11-19T06:03:46.587Z,0.00
2022-11-19T06:04:46.601Z,0.00
2022-11-19T06:05:46.631Z,0.00
2022-11-19T06:06:46.628Z,0.00
2022-11-19T06:07:46.646Z,0.00
2022-11-19T06:08:46.662Z,0.00
2022-11-19T06:09:46.676Z,0.00
2022-11-19T06:10:46.688Z,0.00
2022-11-19T06:11:46.706Z,0.00
2022-11-19T06:12:46.732Z,0.00
2022-11-19T06:13:46.731Z,0.00
2022-11-19T06:14:46.747Z,0.00
2022-11-19T06:15:46.763Z,0.00
2022-11-19T06:16:46.781Z,0.00
2022-11-19T06:17:46.794Z,0.00
2022-11-19T06:18:46.851Z,4.00
2022-11-19T06:19:46.833Z,4.00
2022-11-19T06:20:46.844Z,0.00
2022-11-19T06:21:46.853Z,4.00
2022-11-19T06:22:46.868Z,4.00
2022-11-19T06:23:46.881Z,4.00
2022-11-19T06:24:46.896Z,8.00
2022-11-19T06:25:46.912Z,8.00
2022-11-19T06:26:46.926Z,8.00
2022-11-19T06:27:46.943Z,8.00
2022-11-19T06:28:46.956Z,8.00
2022-11-19T06:29:46.974Z,12.00
2022-11-19T06:30:46.990Z,12.00
2022-11-19T06:31:46.999Z,16.00
2022-11-19T06:32:47.016Z,16.00
2022-11-19T06:33:47.030Z,20.00
2022-11-19T06:34:47.040Z,24.00
2022-11-19T06:35:47.071Z,28.00
2022-11-19T06:36:50.507Z,32.00
2022-11-19T06:37:47.089Z,36.00
2022-11-19T06:38:47.103Z,44.00
2022-11-19T06:39:47.119Z,52.00
2022-11-19T06:40:47.131Z,60.00
2022-11-19T06:41:47.147Z,64.00
2022-11-19T06:42:50.789Z,72.00
2022-11-19T06:43:47.176Z,80.00
2022-11-19T06:44:47.190Z,92.00
2022-11-19T06:45:47.223Z,104.00
2022-11-19T06:46:47.219Z,108.00
2022-11-19T06:47:47.237Z,124.00
2022-11-19T06:48:47.247Z,136.00
2022-11-19T06:49:47.263Z,148.00
2022-11-19T06:50:47.277Z,160.00
2022-11-19T06:51:47.290Z,176.00
2022-11-19T06:52:47.306Z,192.00
2022-11-19T06:53:47.322Z,204.00
2022-11-19T06:54:47.337Z,224.00
2022-11-19T06:55:47.364Z,240.00
2022-11-19T06:56:47.365Z,260.00
2022-11-19T06:57:47.381Z,276.00
2022-11-19T06:58:47.394Z,296.00
2022-11-19T06:59:47.407Z,316.00
2022-11-19T07:00:47.424Z,340.00
2022-11-19T07:01:47.635Z,360.00
2022-11-19T07:02:47.451Z,380.00
2022-11-19T07:03:47.467Z,404.00
2022-11-19T07:04:47.479Z,428.00
2022-11-19T07:05:47.496Z,452.00
2022-11-19T07:06:47.521Z,472.00
2022-11-19T07:07:47.526Z,496.00
2022-11-19T07:08:47.540Z,524.00
2022-11-19T07:09:47.555Z,548.00
2022-11-19T07:10:47.573Z,576.00
2022-11-19T07:11:47.586Z,600.00
2022-11-19T07:12:47.595Z,624.00
2022-11-19T07:13:47.610Z,656.00
2022-11-19T07:14:47.649Z,688.00
2022-11-19T07:15:47.637Z,712.00
2022-11-19T07:16:47.654Z,744.00
2022-11-19T07:17:47.670Z,776.00
2022-11-19T07:18:47.685Z,808.00
2022-11-19T07:19:47.698Z,836.00
2022-11-19T07:20:47.714Z,860.00
2022-11-19T07:21:47.726Z,884.00
2022-11-19T07:22:47.743Z,908.00
2022-11-19T07:23:47.760Z,936.00
2022-11-19T07:24:47.774Z,960.00
2022-11-19T07:25:47.786Z,984.00
2022-11-19T07:26:47.803Z,1012.00
2022-11-19T07:27:47.814Z,1032.00
2022-11-19T07:28:47.827Z,1056.00
2022-11-19T07:29:47.848Z,1080.00
2022-11-19T07:30:47.857Z,1100.00
2022-11-19T07:31:47.872Z,1124.00
2022-11-19T07:32:47.887Z,1140.00
2022-11-19T07:33:47.909Z,1164.00
2022-11-19T07:34:47.923Z,1180.00
2022-11-19T07:35:47.933Z,1204.00
2022-11-19T07:36:47.944Z,1224.00
2022-11-19T07:37:47.961Z,1244.00
2022-11-19T07:38:47.975Z,1264.00
2022-11-19T07:39:47.993Z,1284.00
2022-11-19T07:40:48.004Z,1304.00
2022-11-19T07:41:48.020Z,1320.00
2022-11-19T07:42:48.032Z,1340.00
2022-11-19T07:43:48.058Z,1360.00
2022-11-19T07:44:53.539Z,1372.00
2022-11-19T07:45:48.078Z,1392.00
2022-11-19T07:46:48.091Z,1408.00
2022-11-19T07:47:48.100Z,1428.00
2022-11-19T07:48:48.121Z,1440.00
2022-11-19T07:49:48.132Z,1460.00
2022-11-19T07:50:52.352Z,1476.00
2022-11-19T07:51:48.163Z,1492.00
2022-11-19T07:52:48.190Z,1508.00
2022-11-19T07:53:48.193Z,1520.00
2022-11-19T07:54:48.217Z,1536.00
2022-11-19T07:55:48.220Z,1556.00
2022-11-19T07:56:48.238Z,1568.00
2022-11-19T07:57:48.249Z,1588.00
2022-11-19T07:58:48.265Z,1600.00
2022-11-19T07:59:48.277Z,1612.00
2022-11-19T08:00:48.296Z,1628.00
2022-11-19T08:01:48.368Z,1640.00
2022-11-19T08:02:48.323Z,1648.00
2022-11-19T08:03:52.037Z,1656.00
2022-11-19T08:04:48.355Z,1672.00
2022-11-19T08:05:48.369Z,1680.00
2022-11-19T08:06:48.383Z,1692.00
2022-11-19T08:07:48.396Z,1700.00
2022-11-19T08:08:48.413Z,1716.00
2022-11-19T08:09:48.425Z,1728.00
2022-11-19T08:10:48.445Z,1740.00
2022-11-19T08:11:48.454Z,1752.00
2022-11-19T08:12:48.470Z,1760.00
2022-11-19T08:13:48.483Z,1776.00
2022-11-19T08:14:48.499Z,1784.00
2022-11-19T08:15:48.513Z,1788.00
2022-11-19T08:16:48.527Z,1800.00
2022-11-19T08:17:48.547Z,1804.00
2022-11-19T08:18:48.560Z,1812.00
2022-11-19T08:19:48.589Z,1824.00
2022-11-19T08:20:48.604Z,1836.00
2022-11-19T08:21:48.603Z,1844.00
2022-11-19T08:22:48.622Z,1860.00
2022-11-19T08:23:48.630Z,1868.00
2022-11-19T08:24:48.649Z,1880.00
2022-11-19T08:25:48.664Z,1880.00
2022-11-19T08:26:48.691Z,1896.00
2022-11-19T08:27:48.690Z,1904.00
2022-11-19T08:28:48.706Z,1912.00
2022-11-19T08:29:48.722Z,1920.00
2022-11-19T08:30:48.736Z,1928.00
2022-11-19T08:31:48.752Z,1936.00
2022-11-19T08:32:48.780Z,1940.00
2022-11-19T08:33:48.778Z,1944.00
2022-11-19T08:34:48.796Z,1948.00
2022-11-19T08:35:48.843Z,1956.00
2022-11-19T08:36:48.826Z,1960.00
2022-11-19T08:37:48.840Z,1972.00
2022-11-19T08:38:48.856Z,1968.00
2022-11-19T08:39:48.870Z,1980.00
2022-11-19T08:40:48.884Z,1980.00
2022-11-19T08:41:48.899Z,1984.00
2022-11-19T08:42:48.913Z,1984.00
2022-11-19T08:43:48.930Z,1992.00
2022-11-19T08:44:48.946Z,1996.00
2022-11-19T08:45:48.961Z,2000.00
2022-11-19T08:46:48.976Z,2012.00
2022-11-19T08:47:48.986Z,2008.00
2022-11-19T08:48:49.009Z,2012.00
2022-11-19T08:49:49.055Z,2012.00
2022-11-19T08:50:49.040Z,2020.00
2022-11-19T08:51:49.045Z,2024.00
2022-11-19T08:52:49.066Z,2036.00
2022-11-19T08:53:49.080Z,2048.00
2022-11-19T08:54:49.115Z,2040.00
2022-11-19T08:55:49.109Z,2040.00
2022-11-19T08:56:49.125Z,2044.00
2022-11-19T08:57:49.139Z,2048.00
2022-11-19T08:58:49.160Z,2048.00
2022-11-19T08:59:49.170Z,2056.00
2022-11-19T09:00:49.216Z,2052.00
2022-11-19T09:01:49.203Z,2052.00
2022-11-19T09:02:49.215Z,2056.00
2022-11-19T09:03:49.230Z,2064.00
2022-11-19T09:04:49.243Z,2072.00
2022-11-19T09:05:49.270Z,2072.00
2022-11-19T09:06:49.284Z,2080.00
2022-11-19T09:07:49.294Z,2084.00
2022-11-19T09:08:49.308Z,2080.00
2022-11-19T09:09:49.341Z,2088.00
2022-11-19T09:10:49.335Z,2088.00
2022-11-19T09:11:49.369Z,2088.00
2022-11-19T09:12:49.368Z,2080.00
2022-11-19T09:13:49.386Z,2076.00
2022-11-19T09:14:49.398Z,2096.00
2022-11-19T09:15:49.414Z,2116.00
2022-11-19T09:16:49.431Z,2120.00
2022-11-19T09:17:49.450Z,2120.00
2022-11-19T09:18:49.461Z,2132.00
2022-11-19T09:19:49.480Z,2148.00
2022-11-19T09:20:49.498Z,2140.00
2022-11-19T09:21:49.506Z,2144.00
2022-11-19T09:22:49.521Z,2144.00
2022-11-19T09:23:49.538Z,2144.00
2022-11-19T09:24:49.555Z,2144.00
2022-11-19T09:25:49.565Z,2140.00
2022-11-19T09:26:52.825Z,2132.00
2022-11-19T09:27:49.599Z,2132.00
2022-11-19T09:28:49.614Z,2132.00
2022-11-19T09:29:49.635Z,2136.00
2022-11-19T09:30:49.646Z,2132.00
2022-11-19T09:31:49.663Z,2140.00
2022-11-19T09:32:49.694Z,2140.00
2022-11-19T09:33:49.692Z,2140.00
2022-11-19T09:34:49.707Z,2144.00
2022-11-19T09:35:49.727Z,2144.00
2022-11-19T09:36:49.736Z,2148.00
2022-11-19T09:37:49.756Z,2148.00
2022-11-19T09:38:49.772Z,2156.00
2022-11-19T09:39:56.942Z,2160.00
2022-11-19T09:41:43.256Z,2164.00
2022-11-19T09:42:42.724Z,2168.00
2022-11-19T09:44:46.714Z,2164.00
2022-11-19T09:45:46.728Z,2168.00
2022-11-19T09:47:51.207Z,2180.00
2022-11-19T09:48:50.758Z,2180.00
2022-11-19T09:50:54.728Z,2176.00
2022-11-19T09:51:54.735Z,2184.00
2022-11-19T09:53:59.224Z,2188.00
2022-11-19T09:54:58.740Z,2188.00
2022-11-19T09:57:04.532Z,2192.00
2022-11-19T09:58:02.757Z,2188.00
2022-11-19T10:00:07.743Z,2188.00
2022-11-19T10:01:06.749Z,2188.00
2022-11-19T10:03:10.790Z,2196.00
2022-11-19T10:04:10.761Z,2192.00
2022-11-19T10:06:15.250Z,2196.00
2022-11-19T10:07:14.771Z,2196.00
2022-11-19T10:09:18.763Z,2192.00
2022-11-19T10:10:18.772Z,2192.00
2022-11-19T10:12:23.253Z,2192.00
2022-11-19T10:13:22.766Z,2192.00
2022-11-19T10:15:26.776Z,2200.00
2022-11-19T10:16:26.782Z,2196.00
2022-11-19T10:18:32.265Z,2200.00
2022-11-19T10:19:31.835Z,2200.00
2022-11-19T10:21:24.714Z,2204.00
2022-11-19T10:22:24.723Z,2208.00
2022-11-19T10:24:29.199Z,2200.00
2022-11-19T10:25:28.719Z,2204.00
2022-11-19T10:27:32.724Z,2200.00
2022-11-19T10:28:32.727Z,2196.00
2022-11-19T10:30:37.215Z,2196.00
2022-11-19T10:31:36.737Z,2192.00
2022-11-19T10:33:40.742Z,2200.00
2022-11-19T10:34:40.746Z,2200.00
2022-11-19T10:36:45.245Z,2196.00
2022-11-19T10:37:44.773Z,2200.00
2022-11-19T10:39:48.773Z,2204.00
2022-11-19T10:40:48.775Z,2204.00
2022-11-19T10:42:53.257Z,2208.00
2022-11-19T10:43:52.798Z,2212.00
2022-11-19T10:45:57.289Z,2216.00
2022-11-19T10:46:57.294Z,2216.00
2022-11-19T10:47:57.312Z,2220.00
2022-11-19T10:48:57.329Z,2224.00
2022-11-19T10:49:57.347Z,2228.00
2022-11-19T10:50:57.358Z,2224.00
2022-11-19T10:51:57.377Z,2236.00
2022-11-19T10:52:57.389Z,2236.00
2022-11-19T10:53:57.407Z,2240.00
2022-11-19T10:54:57.425Z,2244.00
2022-11-19T10:55:57.441Z,2248.00
2022-11-19T10:56:57.453Z,2248.00
2022-11-19T10:57:57.473Z,2252.00
2022-11-19T10:58:57.496Z,2260.00
2022-11-19T10:59:57.510Z,2260.00
2022-11-19T11:00:57.591Z,2264.00
2022-11-19T11:01:57.549Z,2272.00
2022-11-19T11:03:04.713Z,2276.00
2022-11-19T11:05:02.037Z,2296.00
2022-11-19T11:06:01.563Z,2304.00
2022-11-19T11:08:05.564Z,2340.00
2022-11-19T11:09:05.564Z,2360.00
2022-11-19T11:10:59.534Z,2400.00
2022-11-19T11:11:58.993Z,2424.00
2022-11-19T11:12:59.028Z,2456.00
2022-11-19T11:13:59.025Z,2488.00
2022-11-19T11:14:59.042Z,2532.00
2022-11-19T11:15:59.062Z,2580.00
2022-11-19T11:16:59.072Z,2640.00
2022-11-19T11:17:59.093Z,2708.00
2022-11-19T11:18:59.107Z,2792.00
2022-11-19T11:19:59.123Z,2884.00
2022-11-19T11:20:59.142Z,2980.00
2022-11-19T11:21:59.158Z,3088.00
2022-11-19T11:22:59.174Z,3200.00
2022-11-19T11:23:59.190Z,3304.00
2022-11-19T11:25:02.811Z,3412.00
2022-11-19T11:25:59.221Z,3504.00
2022-11-19T11:26:59.242Z,3596.00
2022-11-19T11:27:59.259Z,3672.00
2022-11-19T11:28:59.276Z,3740.00
2022-11-19T11:29:59.294Z,3800.00
2022-11-19T11:30:59.308Z,3852.00
2022-11-19T11:31:59.352Z,3892.00
2022-11-19T11:32:59.342Z,3928.00
2022-11-19T11:33:59.361Z,3952.00
2022-11-19T11:35:03.500Z,3956.00
2022-11-19T11:35:59.391Z,3952.00
2022-11-19T11:36:59.411Z,3932.00
2022-11-19T11:37:59.431Z,3900.00
2022-11-19T11:38:59.444Z,3872.00
2022-11-19T11:39:59.463Z,3836.00
2022-11-19T11:41:30.030Z,3780.00
2022-11-19T11:42:05.939Z,3708.00
2022-11-19T11:42:59.510Z,3628.00
2022-11-19T11:43:59.530Z,3536.00
2022-11-19T11:44:59.570Z,3440.00
2022-11-19T11:45:59.570Z,3348.00
2022-11-19T11:46:59.580Z,3228.00
2022-11-19T11:47:59.600Z,3128.00
2022-11-19T11:49:05.865Z,3048.00
2022-11-19T11:49:59.633Z,2960.00
2022-11-19T11:50:59.651Z,2896.00
2022-11-19T11:51:59.667Z,2840.00
2022-11-19T11:52:59.690Z,2780.00
2022-11-19T11:53:59.762Z,2708.00
2022-11-19T11:54:59.727Z,2668.00
2022-11-19T11:55:59.734Z,2604.00
2022-11-19T11:56:59.757Z,2548.00
2022-11-19T11:57:59.769Z,2476.00
2022-11-19T11:58:59.803Z,2408.00
2022-11-19T11:59:59.808Z,2352.00
2022-11-19T12:00:59.824Z,2312.00
2022-11-19T12:01:59.913Z,2284.00
2022-11-19T12:02:59.859Z,2256.00
2022-11-19T12:03:59.870Z,2224.00
2022-11-19T12:04:59.891Z,2188.00
2022-11-19T12:05:59.906Z,2164.00
2022-11-19T12:06:59.960Z,2172.00
2022-11-19T12:07:59.943Z,2160.00
2022-11-19T12:08:59.972Z,2132.00
2022-11-19T12:09:59.978Z,2120.00
2022-11-19T12:10:59.995Z,2116.00
2022-11-19T12:12:00.012Z,2120.00
2022-11-19T12:13:00.027Z,2120.00
2022-11-19T12:14:00.046Z,2116.00
2022-11-19T12:15:00.062Z,2128.00
2022-11-19T12:16:00.091Z,2136.00
2022-11-19T12:17:00.119Z,2144.00
2022-11-19T12:18:00.115Z,2152.00
2022-11-19T12:19:00.129Z,2172.00
2022-11-19T12:20:00.153Z,2192.00
2022-11-19T12:21:00.165Z,2228.00
2022-11-19T12:22:00.189Z,2264.00
2022-11-19T12:23:00.199Z,2316.00
2022-11-19T12:24:00.217Z,2364.00
2022-11-19T12:25:00.235Z,2388.00
2022-11-19T12:26:00.254Z,2412.00
2022-11-19T12:27:00.262Z,2436.00
2022-11-19T12:28:00.287Z,2460.00
2022-11-19T12:29:00.305Z,2472.00
2022-11-19T12:30:01.171Z,2476.00
2022-11-19T12:31:00.337Z,2464.00
2022-11-19T12:32:00.631Z,2452.00
2022-11-19T12:33:00.367Z,2448.00
2022-11-19T12:34:00.386Z,2432.00
2022-11-19T12:35:00.406Z,2420.00
2022-11-19T12:36:00.419Z,2412.00
2022-11-19T12:37:00.436Z,2388.00
2022-11-19T12:38:00.456Z,2344.00
2022-11-19T12:39:00.470Z,2280.00
2022-11-19T12:40:00.491Z,2240.00
2022-11-19T12:41:00.509Z,2228.00
2022-11-19T12:42:00.532Z,2240.00
2022-11-19T12:43:00.539Z,2240.00
2022-11-19T12:44:00.561Z,2232.00
2022-11-19T12:45:00.586Z,2224.00
2022-11-19T12:46:00.600Z,2204.00
2022-11-19T12:47:00.608Z,2176.00
2022-11-19T12:48:00.644Z,2144.00
2022-11-19T12:49:00.646Z,2120.00
2022-11-19T12:50:00.659Z,2112.00
2022-11-19T12:51:00.680Z,2100.00
2022-11-19T12:52:00.695Z,2088.00
2022-11-19T12:53:00.710Z,2076.00
2022-11-19T12:54:00.727Z,2060.00
2022-11-19T12:55:00.743Z,2044.00
2022-11-19T12:56:00.760Z,2040.00
2022-11-19T12:57:00.776Z,2036.00
2022-11-19T12:58:00.793Z,2032.00
2022-11-19T12:59:00.848Z,2032.00
2022-11-19T13:00:00.828Z,2048.00
2022-11-19T13:01:00.898Z,2084.00
2022-11-19T13:02:00.864Z,2104.00
2022-11-19T13:03:00.900Z,2116.00
2022-11-19T13:04:00.903Z,2128.00
2022-11-19T13:05:00.912Z,2144.00
2022-11-19T13:06:00.930Z,2164.00
2022-11-19T13:07:01.014Z,2188.00
2022-11-19T13:08:00.966Z,2192.00
2022-11-19T13:09:00.982Z,2184.00
2022-11-19T13:10:00.998Z,2176.00